Time;durP1;ratioP1;P1;durP2;ratioP2;P2;SDS_P1;SDS_P2;PMS_P1;PMS_P2;Temp;Humidity;BMP_temperature;BMP_pressure;BME280_temperature;BME280_humidity;BME280_pressure;Samples;Min_cycle;Max_cycle;Signal;HPM_P1;HPM_P2
2023/05/22 00:02:01;;;;;;;13.63;12.10;;;20.30;99.90;;;;;;5014694;28;20604;-66
2023/05/22 00:04:28;;;;;;;14.30;11.70;;;20.30;99.90;;;;;;5014592;28;20569;-66
2023/05/22 00:06:54;;;;;;;13.00;11.50;;;20.20;99.90;;;;;;5011266;28;20440;-66
2023/05/22 00:09:20;;;;;;;13.03;11.43;;;20.20;99.90;;;;;;5043297;28;20565;-65
2023/05/22 00:11:46;;;;;;;12.80;11.47;;;20.20;99.90;;;;;;5009430;28;20482;-65
2023/05/22 00:14:15;;;;;;;12.10;10.80;;;20.20;99.90;;;;;;5013470;28;20949;-65
2023/05/22 00:16:40;;;;;;;13.53;12.13;;;20.10;99.90;;;;;;5020305;28;20184;-65
2023/05/22 00:19:11;;;;;;;11.97;10.90;;;20.10;99.90;;;;;;5013644;28;21594;-65
2023/05/22 00:21:37;;;;;;;12.57;11.27;;;20.10;99.90;;;;;;5017016;28;20200;-66
2023/05/22 00:24:03;;;;;;;11.70;10.50;;;20.10;99.90;;;;;;5017283;28;20592;-66
2023/05/22 00:26:29;;;;;;;13.13;11.73;;;20.00;99.90;;;;;;5027428;28;20488;-66
2023/05/22 00:28:54;;;;;;;13.70;12.30;;;20.00;99.90;;;;;;5025844;28;20267;-65
2023/05/22 00:31:20;;;;;;;13.33;12.00;;;19.90;99.90;;;;;;5032831;28;20287;-65
2023/05/22 00:33:45;;;;;;;19.47;12.20;;;19.90;99.90;;;;;;5022253;28;20646;-67
2023/05/22 00:36:11;;;;;;;12.97;11.77;;;19.90;99.90;;;;;;5015242;28;20549;-66
2023/05/22 00:38:37;;;;;;;12.37;11.10;;;19.90;99.90;;;;;;5023331;28;20288;-66
2023/05/22 00:41:04;;;;;;;13.07;11.70;;;19.90;99.90;;;;;;5029469;28;20184;-66
2023/05/22 00:43:30;;;;;;;13.70;12.33;;;19.80;99.90;;;;;;5056868;28;20541;-66
2023/05/22 00:45:56;;;;;;;13.00;11.70;;;19.80;99.90;;;;;;5018196;28;20424;-65
2023/05/22 00:48:22;;;;;;;14.57;12.03;;;19.80;99.90;;;;;;5014908;28;20479;-65
2023/05/22 00:50:49;;;;;;;13.20;11.90;;;19.80;99.90;;;;;;5017633;28;20208;-65
2023/05/22 00:53:15;;;;;;;19.20;11.30;;;19.80;99.90;;;;;;5019983;28;20447;-66
2023/05/22 00:55:42;;;;;;;13.10;11.80;;;19.80;99.90;;;;;;5022516;28;20566;-66
2023/05/22 00:58:12;;;;;;;13.10;11.93;;;19.80;99.90;;;;;;5017957;28;20456;-66
2023/05/22 01:00:40;;;;;;;11.80;10.60;;;19.70;99.90;;;;;;5022914;28;20427;-64
2023/05/22 01:03:08;;;;;;;15.80;12.43;;;19.70;99.90;;;;;;5028908;28;20477;-65
2023/05/22 01:05:34;;;;;;;12.33;11.23;;;19.70;99.90;;;;;;5022984;28;20444;-65
2023/05/22 01:08:00;;;;;;;13.50;11.97;;;19.70;99.90;;;;;;5017904;28;20490;-65
2023/05/22 01:10:27;;;;;;;12.13;10.93;;;19.70;99.90;;;;;;5018324;28;20499;-65
2023/05/22 01:13:26;;;;;;;13.60;12.20;;;19.70;99.90;;;;;;5019747;28;20203;-65
2023/05/22 01:15:58;;;;;;;13.53;11.80;;;19.70;99.90;;;;;;5021453;28;20502;-65
2023/05/22 01:18:30;;;;;;;13.20;12.00;;;19.70;99.90;;;;;;5022294;28;20847;-65
2023/05/22 01:21:21;;;;;;;13.03;11.83;;;19.60;99.90;;;;;;5015412;28;20506;-65
2023/05/22 01:24:30;;;;;;;13.60;12.23;;;19.60;99.90;;;;;;5013126;28;20443;-65
2023/05/22 01:27:33;;;;;;;13.60;12.10;;;19.50;99.90;;;;;;5050318;28;20534;-65
2023/05/22 01:30:09;;;;;;;15.30;11.57;;;19.50;99.90;;;;;;5012923;28;20474;-65
2023/05/22 01:32:37;;;;;;;14.40;12.90;;;19.50;99.90;;;;;;5023385;28;20442;-65
2023/05/22 01:35:07;;;;;;;15.03;13.00;;;19.50;99.90;;;;;;5028102;28;20451;-65
2023/05/22 01:37:33;;;;;;;16.83;13.17;;;19.50;99.90;;;;;;5019186;28;20511;-65
2023/05/22 01:40:00;;;;;;;13.50;12.23;;;19.40;99.90;;;;;;5017154;28;20457;-65
2023/05/22 01:42:26;;;;;;;13.77;12.40;;;19.50;99.90;;;;;;5015334;28;20447;-65
2023/05/22 01:44:52;;;;;;;13.50;12.00;;;19.40;99.90;;;;;;5014863;28;20960;-65
2023/05/22 01:47:17;;;;;;;16.47;11.80;;;19.40;99.90;;;;;;5016569;28;20440;-65
2023/05/22 01:49:43;;;;;;;14.40;13.00;;;19.30;99.90;;;;;;5018965;28;20267;-65
2023/05/22 01:52:18;;;;;;;17.07;13.77;;;19.20;99.90;;;;;;5019364;28;20316;-65
2023/05/22 01:54:57;;;;;;;18.10;12.63;;;19.20;99.90;;;;;;5018709;28;20465;-65
2023/05/22 01:57:42;;;;;;;16.77;13.80;;;19.10;99.90;;;;;;5024632;28;20454;-65
2023/05/22 02:00:12;;;;;;;16.40;13.17;;;19.00;99.90;;;;;;5021395;28;20442;-65
2023/05/22 02:02:40;;;;;;;13.90;12.40;;;18.90;99.90;;;;;;5021129;28;20419;-65
2023/05/22 02:05:10;;;;;;;14.90;13.33;;;18.90;99.90;;;;;;5028384;28;20441;-65
2023/05/22 02:07:38;;;;;;;13.10;11.70;;;18.90;99.90;;;;;;5021303;28;20933;-65
2023/05/22 02:10:05;;;;;;;13.77;12.37;;;18.90;99.90;;;;;;5024830;28;20463;-65
2023/05/22 02:12:32;;;;;;;15.93;12.33;;;18.90;99.90;;;;;;5021744;28;20451;-65
2023/05/22 02:14:57;;;;;;;16.10;12.80;;;18.90;99.90;;;;;;5023102;28;20453;-65
2023/05/22 02:17:23;;;;;;;16.37;13.07;;;18.80;99.90;;;;;;5016856;28;20935;-65
2023/05/22 02:19:48;;;;;;;14.40;11.40;;;18.80;99.90;;;;;;5022565;28;20228;-65
2023/05/22 02:22:14;;;;;;;13.57;12.13;;;18.80;99.90;;;;;;5026397;28;20211;-65
2023/05/22 02:24:44;;;;;;;16.97;11.00;;;18.60;99.90;;;;;;5025611;28;20195;-65
2023/05/22 02:27:10;;;;;;;14.50;12.90;;;18.60;99.90;;;;;;5010051;28;20189;-65
2023/05/22 02:29:36;;;;;;;13.30;12.00;;;18.60;99.90;;;;;;5019600;28;20465;-65
2023/05/22 02:32:02;;;;;;;13.40;12.00;;;18.60;99.90;;;;;;5020803;28;20498;-65
2023/05/22 02:34:30;;;;;;;13.43;12.00;;;18.60;99.90;;;;;;5023549;28;20200;-66
2023/05/22 02:36:58;;;;;;;15.30;12.10;;;18.60;99.90;;;;;;5018423;28;20435;-65
2023/05/22 02:39:24;;;;;;;12.60;11.50;;;18.50;99.90;;;;;;5018072;28;20460;-65
2023/05/22 02:41:50;;;;;;;12.97;11.67;;;18.50;99.90;;;;;;5023463;28;20428;-65
2023/05/22 02:44:15;;;;;;;13.77;12.37;;;18.40;99.90;;;;;;5022297;28;20415;-65
2023/05/22 02:46:41;;;;;;;16.37;12.17;;;18.30;99.90;;;;;;5018869;28;20217;-65
2023/05/22 02:49:07;;;;;;;12.30;11.00;;;18.40;99.90;;;;;;5021189;28;20216;-65
2023/05/22 02:51:32;;;;;;;12.93;11.73;;;18.50;99.90;;;;;;5016955;28;20674;-65
2023/05/22 02:53:58;;;;;;;13.13;11.83;;;18.60;99.90;;;;;;5015382;28;20180;-65
2023/05/22 02:56:26;;;;;;;12.33;11.13;;;18.50;99.90;;;;;;5015722;28;20286;-65
2023/05/22 02:58:52;;;;;;;13.03;11.43;;;18.50;99.90;;;;;;5019793;28;20197;-65
2023/05/22 03:01:17;;;;;;;14.67;13.13;;;18.50;99.90;;;;;;5018529;28;20439;-65
2023/05/22 03:03:43;;;;;;;16.23;13.27;;;18.50;99.90;;;;;;5019377;28;20262;-65
2023/05/22 03:06:09;;;;;;;16.10;13.23;;;18.40;99.90;;;;;;5025168;28;20667;-65
2023/05/22 03:08:37;;;;;;;13.60;12.27;;;18.40;99.90;;;;;;5022856;28;20208;-66
2023/05/22 03:11:02;;;;;;;15.07;13.63;;;18.30;99.90;;;;;;5019633;28;20728;-66
2023/05/22 03:13:28;;;;;;;15.30;13.70;;;18.30;99.90;;;;;;5017150;28;20534;-66
2023/05/22 03:15:53;;;;;;;15.83;14.23;;;18.40;99.90;;;;;;5017913;28;20272;-66
2023/05/22 03:18:20;;;;;;;14.50;13.10;;;18.30;99.90;;;;;;5016275;28;20271;-65
2023/05/22 03:20:46;;;;;;;14.60;13.20;;;18.30;99.90;;;;;;5024296;28;20246;-66
2023/05/22 03:23:12;;;;;;;15.43;13.90;;;18.30;99.90;;;;;;5014701;28;20444;-66
2023/05/22 03:25:38;;;;;;;14.80;13.30;;;18.30;99.90;;;;;;5014355;28;20299;-66
2023/05/22 03:28:03;;;;;;;16.20;13.97;;;18.30;99.90;;;;;;5015635;28;20455;-66
2023/05/22 03:30:29;;;;;;;14.80;13.30;;;18.40;99.90;;;;;;5020517;28;20471;-66
2023/05/22 03:32:55;;;;;;;15.20;13.43;;;18.30;99.90;;;;;;5012625;28;20254;-66
2023/05/22 03:35:20;;;;;;;16.10;14.40;;;18.30;99.90;;;;;;5017282;28;20269;-66
2023/05/22 03:37:46;;;;;;;15.47;13.87;;;18.20;99.90;;;;;;5015917;28;20192;-66
2023/05/22 03:40:12;;;;;;;15.30;13.23;;;18.30;99.90;;;;;;5015637;28;20250;-66
2023/05/22 03:42:38;;;;;;;16.10;14.43;;;18.30;99.90;;;;;;5015306;28;20553;-66
2023/05/22 03:45:04;;;;;;;16.57;14.77;;;18.20;99.90;;;;;;5021312;28;20196;-66
2023/05/22 03:47:29;;;;;;;18.07;15.60;;;18.20;99.90;;;;;;5016303;28;20279;-65
2023/05/22 03:49:55;;;;;;;17.60;15.80;;;18.20;99.90;;;;;;5011527;28;20462;-65
2023/05/22 03:52:21;;;;;;;18.90;15.10;;;18.30;99.90;;;;;;5016249;28;20180;-66
2023/05/22 03:54:46;;;;;;;17.50;15.00;;;18.30;99.90;;;;;;5018963;28;20189;-66
2023/05/22 03:57:12;;;;;;;19.00;16.37;;;18.20;99.90;;;;;;5010155;28;20797;-66
2023/05/22 03:59:38;;;;;;;19.50;15.97;;;18.20;99.90;;;;;;5015032;28;20303;-66
2023/05/22 04:02:04;;;;;;;18.47;16.50;;;18.30;99.90;;;;;;5017966;28;20512;-66
2023/05/22 04:04:31;;;;;;;16.97;15.20;;;18.20;99.90;;;;;;5022931;28;20280;-65
2023/05/22 04:06:56;;;;;;;17.53;15.73;;;18.30;99.90;;;;;;5020407;28;20553;-65
2023/05/22 04:09:30;;;;;;;16.63;14.93;;;18.20;99.90;;;;;;5010360;28;20463;-65
2023/05/22 04:11:55;;;;;;;18.23;15.70;;;18.20;99.90;;;;;;5009759;28;20208;-65
2023/05/22 04:14:21;;;;;;;18.50;15.27;;;18.20;99.90;;;;;;5015383;28;20514;-65
2023/05/22 04:16:47;;;;;;;18.87;15.50;;;18.20;99.90;;;;;;5019273;28;20287;-66
2023/05/22 04:19:12;;;;;;;21.83;16.00;;;18.10;99.90;;;;;;5018056;28;20289;-66
2023/05/22 04:21:38;;;;;;;17.80;16.00;;;18.20;99.90;;;;;;5015255;28;20184;-66
2023/05/22 04:24:05;;;;;;;17.40;15.47;;;18.20;99.90;;;;;;5013077;28;20184;-66
2023/05/22 04:26:32;;;;;;;19.03;16.10;;;18.10;99.90;;;;;;5015757;28;20194;-66
2023/05/22 04:28:58;;;;;;;17.87;15.97;;;18.20;99.90;;;;;;5011179;28;20495;-66
2023/05/22 04:31:23;;;;;;;18.03;16.10;;;18.20;99.90;;;;;;5020397;28;20498;-66
2023/05/22 04:33:49;;;;;;;20.13;15.90;;;18.20;99.90;;;;;;5020743;28;20185;-66
2023/05/22 04:36:16;;;;;;;22.07;15.13;;;18.30;99.90;;;;;;5021528;28;20222;-66
2023/05/22 04:38:43;;;;;;;16.33;14.70;;;18.30;99.90;;;;;;5019895;28;20453;-66
2023/05/22 04:41:09;;;;;;;18.53;16.33;;;18.40;99.90;;;;;;5021718;28;20817;-66
2023/05/22 04:43:37;;;;;;;17.37;15.60;;;18.50;99.90;;;;;;5026665;28;20936;-66
2023/05/22 04:46:03;;;;;;;21.93;15.97;;;18.40;99.90;;;;;;5016939;28;20508;-66
2023/05/22 04:48:29;;;;;;;18.40;16.40;;;18.40;99.90;;;;;;5016513;28;20451;-66
2023/05/22 04:50:56;;;;;;;18.10;16.20;;;18.40;99.90;;;;;;5018857;28;20741;-66
2023/05/22 04:53:21;;;;;;;19.67;17.10;;;18.40;99.90;;;;;;5015819;28;20446;-66
2023/05/22 04:55:48;;;;;;;20.20;16.67;;;18.50;99.90;;;;;;5017951;28;20454;-66
2023/05/22 04:58:13;;;;;;;18.83;16.00;;;18.50;99.90;;;;;;5018860;28;20201;-66
2023/05/22 05:00:39;;;;;;;17.50;15.80;;;18.60;99.90;;;;;;5017202;28;20526;-66
2023/05/22 05:03:06;;;;;;;18.77;16.30;;;18.60;99.90;;;;;;5024382;28;20218;-66
2023/05/22 05:05:32;;;;;;;18.50;16.63;;;18.60;99.90;;;;;;5024769;28;20184;-66
2023/05/22 05:07:58;;;;;;;18.30;16.40;;;18.70;99.90;;;;;;5016120;28;20969;-66
2023/05/22 05:10:24;;;;;;;17.80;15.73;;;18.70;99.90;;;;;;5011589;28;20501;-66
2023/05/22 05:12:49;;;;;;;17.90;16.07;;;18.70;99.90;;;;;;5015278;28;20252;-66
2023/05/22 05:15:15;;;;;;;17.50;15.50;;;18.70;99.90;;;;;;5015667;28;20173;-66
2023/05/22 05:17:41;;;;;;;17.43;15.77;;;18.80;99.90;;;;;;5019760;28;20314;-66
2023/05/22 05:20:07;;;;;;;17.17;15.47;;;18.80;99.90;;;;;;5020380;28;20311;-66
2023/05/22 05:22:33;;;;;;;20.00;16.03;;;18.90;99.90;;;;;;5016672;28;20188;-66
2023/05/22 05:24:58;;;;;;;18.30;16.50;;;18.90;99.90;;;;;;5017564;28;20431;-66
2023/05/22 05:27:24;;;;;;;17.60;15.57;;;18.90;99.90;;;;;;5020895;28;20801;-66
2023/05/22 05:29:49;;;;;;;17.20;15.47;;;18.90;99.90;;;;;;5013601;28;20197;-66
2023/05/22 05:32:15;;;;;;;16.37;14.43;;;18.90;99.90;;;;;;5023742;28;20215;-66
2023/05/22 05:34:41;;;;;;;18.03;16.13;;;18.90;99.90;;;;;;5024090;28;20285;-66
2023/05/22 05:37:06;;;;;;;16.60;14.97;;;18.90;99.90;;;;;;5016970;28;20207;-66
2023/05/22 05:39:32;;;;;;;16.63;14.90;;;18.90;99.90;;;;;;5015173;28;20240;-66
2023/05/22 05:41:58;;;;;;;17.87;15.10;;;19.00;99.90;;;;;;5019272;28;20188;-66
2023/05/22 05:44:24;;;;;;;17.43;15.40;;;19.00;99.90;;;;;;5015860;28;20839;-66
2023/05/22 05:46:51;;;;;;;15.90;14.20;;;19.00;99.90;;;;;;5018162;28;20556;-66
2023/05/22 05:49:18;;;;;;;16.50;14.80;;;19.10;99.90;;;;;;5015357;28;20305;-66
2023/05/22 05:51:43;;;;;;;14.97;13.47;;;19.20;99.90;;;;;;5023572;28;20477;-66
2023/05/22 05:54:09;;;;;;;16.70;15.10;;;19.20;99.90;;;;;;5018648;28;20435;-66
2023/05/22 05:56:35;;;;;;;19.97;17.73;;;19.20;99.90;;;;;;5020741;28;20617;-66
2023/05/22 05:59:01;;;;;;;15.80;14.20;;;19.30;99.90;;;;;;5017223;28;20451;-66
2023/05/22 06:01:29;;;;;;;15.03;12.60;;;19.40;99.90;;;;;;5024272;28;20211;-66
2023/05/22 06:03:55;;;;;;;14.50;12.90;;;19.50;99.90;;;;;;5019666;28;20235;-66
2023/05/22 06:06:24;;;;;;;14.27;12.87;;;19.50;99.90;;;;;;5023864;28;20439;-66
2023/05/22 06:08:50;;;;;;;14.93;13.07;;;19.50;99.90;;;;;;5018041;28;20226;-66
2023/05/22 06:11:15;;;;;;;14.93;13.13;;;19.50;99.90;;;;;;5018141;28;20963;-66
2023/05/22 06:13:41;;;;;;;15.70;14.03;;;19.50;99.90;;;;;;5016793;28;20733;-66
2023/05/22 06:16:06;;;;;;;16.07;14.00;;;19.50;99.90;;;;;;5016779;28;20200;-66
2023/05/22 06:18:32;;;;;;;14.63;13.13;;;19.60;99.90;;;;;;5021100;28;20204;-66
2023/05/22 06:20:58;;;;;;;14.13;12.70;;;19.70;99.90;;;;;;5017962;28;20232;-66
2023/05/22 06:23:23;;;;;;;13.80;12.33;;;19.80;99.90;;;;;;5005460;28;20271;-66
2023/05/22 06:25:49;;;;;;;14.27;12.87;;;19.90;99.90;;;;;;5020534;28;20848;-66
2023/05/22 06:28:14;;;;;;;15.90;13.40;;;19.90;99.90;;;;;;5015648;28;20193;-66
2023/05/22 06:30:40;;;;;;;16.23;14.33;;;19.90;99.90;;;;;;5016221;28;20199;-66
2023/05/22 06:33:06;;;;;;;15.07;13.47;;;19.80;99.90;;;;;;5017719;28;20272;-66
2023/05/22 06:35:32;;;;;;;16.07;14.20;;;19.80;99.90;;;;;;5023384;28;20191;-66
2023/05/22 06:37:57;;;;;;;15.20;13.70;;;19.90;99.90;;;;;;5009643;28;20423;-66
2023/05/22 06:40:23;;;;;;;15.17;13.40;;;20.00;99.90;;;;;;4993958;28;20679;-65
2023/05/22 06:42:48;;;;;;;14.73;13.37;;;20.10;99.90;;;;;;5013820;28;20211;-65
2023/05/22 06:45:16;;;;;;;14.63;13.13;;;20.20;99.90;;;;;;5016596;28;20192;-65
2023/05/22 06:47:42;;;;;;;15.27;13.80;;;20.20;99.90;;;;;;5016507;28;20191;-65
2023/05/22 06:50:09;;;;;;;19.43;17.63;;;20.30;99.90;;;;;;5016006;28;20432;-65
2023/05/22 06:52:35;;;;;;;16.67;13.47;;;20.30;99.90;;;;;;5013027;28;20185;-65
2023/05/22 06:55:04;;;;;;;17.07;15.27;;;20.20;99.90;;;;;;5016841;28;20455;-65
2023/05/22 06:57:33;;;;;;;16.27;14.57;;;20.20;99.90;;;;;;5016282;28;20507;-65
2023/05/22 06:59:59;;;;;;;14.30;13.00;;;20.30;99.90;;;;;;5016756;28;20530;-66
2023/05/22 07:02:25;;;;;;;15.80;14.20;;;20.30;99.90;;;;;;5015389;28;20987;-65
2023/05/22 07:04:52;;;;;;;15.83;14.23;;;20.30;99.90;;;;;;5023555;28;20445;-65
2023/05/22 07:07:17;;;;;;;14.70;13.20;;;20.40;99.90;;;;;;5014842;28;20435;-66
2023/05/22 07:09:43;;;;;;;13.40;12.10;;;20.40;99.90;;;;;;5018018;28;20477;-66
2023/05/22 07:12:09;;;;;;;17.53;15.80;;;20.50;99.90;;;;;;5017026;28;20244;-67
2023/05/22 07:14:35;;;;;;;16.47;14.77;;;20.50;99.90;;;;;;5013902;28;20488;-67
2023/05/22 07:17:00;;;;;;;15.03;13.10;;;20.60;99.90;;;;;;5014090;28;20173;-64
2023/05/22 07:19:26;;;;;;;16.10;14.03;;;20.70;99.90;;;;;;5018164;28;20243;-65
2023/05/22 07:21:51;;;;;;;16.17;12.03;;;20.60;99.90;;;;;;5018202;28;20267;-64
2023/05/22 07:24:17;;;;;;;15.60;13.50;;;20.80;99.90;;;;;;5017508;28;20189;-67
2023/05/22 07:26:45;;;;;;;14.53;12.40;;;20.90;99.90;;;;;;5016963;28;20184;-66
2023/05/22 07:29:12;;;;;;;13.90;12.37;;;20.80;99.90;;;;;;5015826;28;20211;-66
2023/05/22 07:31:38;;;;;;;14.50;11.60;;;20.80;99.90;;;;;;5011953;28;20482;-66
2023/05/22 07:34:03;;;;;;;13.33;12.03;;;20.90;99.90;;;;;;5010055;28;20775;-67
2023/05/22 07:36:30;;;;;;;13.13;11.87;;;21.00;99.90;;;;;;5020899;28;20200;-66
2023/05/22 07:38:56;;;;;;;12.70;11.40;;;21.20;99.90;;;;;;5010122;28;20556;-67
2023/05/22 07:41:23;;;;;;;15.83;12.83;;;21.20;99.90;;;;;;5018525;28;20449;-67
2023/05/22 07:43:48;;;;;;;12.87;11.60;;;21.40;99.90;;;;;;5019599;28;20426;-67
2023/05/22 07:46:14;;;;;;;12.33;11.13;;;21.50;99.90;;;;;;5013215;28;20461;-67
2023/05/22 07:48:40;;;;;;;13.20;11.33;;;21.70;99.90;;;;;;5022777;28;20598;-67
2023/05/22 07:51:06;;;;;;;13.37;12.07;;;21.80;99.90;;;;;;5015411;28;20221;-67
2023/05/22 07:53:32;;;;;;;12.30;11.00;;;22.00;99.90;;;;;;5009167;28;20168;-67
2023/05/22 07:55:57;;;;;;;11.33;10.23;;;22.00;99.90;;;;;;5015880;28;20515;-66
2023/05/22 07:58:23;;;;;;;12.63;11.33;;;22.10;99.90;;;;;;5014738;28;20208;-66
2023/05/22 08:00:49;;;;;;;12.47;10.73;;;22.10;99.90;;;;;;5013974;28;20214;-66
2023/05/22 08:03:14;;;;;;;11.00;9.90;;;22.10;99.90;;;;;;5017925;28;20177;-66
2023/05/22 08:05:40;;;;;;;10.80;9.80;;;22.10;99.90;;;;;;5020365;28;20199;-66
2023/05/22 08:08:05;;;;;;;10.40;9.40;;;22.20;99.90;;;;;;5018741;28;20698;-66
2023/05/22 08:10:31;;;;;;;11.20;10.20;;;22.20;99.90;;;;;;5016039;28;20570;-66
2023/05/22 08:13:01;;;;;;;11.37;10.37;;;22.30;99.90;;;;;;5021239;28;20250;-66
2023/05/22 08:15:26;;;;;;;12.20;11.00;;;22.30;99.90;;;;;;5015894;28;20717;-67
2023/05/22 08:17:52;;;;;;;11.87;10.63;;;22.30;99.90;;;;;;5021508;28;20509;-66
2023/05/22 08:20:18;;;;;;;11.80;10.70;;;22.30;99.90;;;;;;5022969;28;20196;-66
2023/05/22 08:22:43;;;;;;;12.50;11.20;;;22.40;99.90;;;;;;5013753;28;20190;-66
2023/05/22 08:25:09;;;;;;;11.83;10.60;;;22.50;99.90;;;;;;5021457;28;20615;-66
2023/05/22 08:27:34;;;;;;;12.27;10.80;;;22.50;99.90;;;;;;5017248;28;20186;-66
2023/05/22 08:30:03;;;;;;;13.13;11.70;;;22.50;99.90;;;;;;5011647;28;20265;-66
2023/05/22 08:32:28;;;;;;;13.20;11.83;;;22.60;99.90;;;;;;5018854;28;20184;-66
2023/05/22 08:34:54;;;;;;;13.30;11.73;;;22.60;99.90;;;;;;5019600;28;21323;-66
2023/05/22 08:37:20;;;;;;;12.33;10.10;;;22.70;99.90;;;;;;5015482;28;20181;-66
2023/05/22 08:39:45;;;;;;;12.63;11.00;;;22.70;99.90;;;;;;5021415;28;20199;-66
2023/05/22 08:42:11;;;;;;;14.00;12.70;;;22.80;99.90;;;;;;5008979;28;20215;-66
2023/05/22 08:44:36;;;;;;;13.00;11.70;;;22.90;99.90;;;;;;5008255;28;20284;-66
2023/05/22 08:47:08;;;;;;;11.53;10.53;;;22.90;99.90;;;;;;5018454;28;20226;-67
2023/05/22 08:49:34;;;;;;;13.10;11.80;;;23.10;99.90;;;;;;5023702;28;20208;-66
2023/05/22 08:52:06;;;;;;;14.30;12.90;;;23.20;99.90;;;;;;5020024;28;20561;-67
2023/05/22 08:54:35;;;;;;;14.03;11.20;;;23.20;99.90;;;;;;5016917;28;20439;-67
2023/05/22 08:57:01;;;;;;;12.30;11.13;;;23.40;99.90;;;;;;5014794;28;21199;-66
2023/05/22 08:59:28;;;;;;;13.00;11.80;;;23.50;99.90;;;;;;5017192;28;20458;-66
2023/05/22 09:01:53;;;;;;;12.90;11.60;;;23.70;99.90;;;;;;5023493;28;20522;-66
2023/05/22 09:04:22;;;;;;;12.33;11.10;;;23.80;99.90;;;;;;5025661;28;21000;-67
2023/05/22 09:06:48;;;;;;;12.97;10.30;;;23.90;99.90;;;;;;5022003;28;20692;-67
2023/05/22 09:09:13;;;;;;;12.23;11.07;;;23.90;99.90;;;;;;5024678;28;20443;-67
2023/05/22 09:11:39;;;;;;;12.77;11.47;;;23.90;99.90;;;;;;5028151;28;20204;-66
2023/05/22 09:14:08;;;;;;;13.43;12.13;;;24.00;99.90;;;;;;5015876;28;20239;-66
2023/05/22 09:16:47;;;;;;;15.67;12.77;;;24.00;99.90;;;;;;5020283;28;20199;-66
2023/05/22 09:19:13;;;;;;;14.07;12.57;;;24.10;99.90;;;;;;5024659;28;20450;-66
2023/05/22 09:21:39;;;;;;;16.43;14.23;;;24.10;99.90;;;;;;5027416;28;20415;-66
2023/05/22 09:24:09;;;;;;;18.60;15.43;;;24.00;99.90;;;;;;5022422;28;20470;-66
2023/05/22 09:26:35;;;;;;;17.00;15.17;;;24.20;99.90;;;;;;5019705;28;20439;-67
2023/05/22 09:29:01;;;;;;;17.80;14.60;;;24.20;99.90;;;;;;5025152;28;20455;-66
2023/05/22 09:31:28;;;;;;;15.37;13.87;;;24.10;99.90;;;;;;5021080;28;20497;-66
2023/05/22 09:33:57;;;;;;;15.33;13.93;;;24.10;99.90;;;;;;5025313;28;20431;-68
2023/05/22 09:36:31;;;;;;;14.53;13.13;;;24.00;99.90;;;;;;5020011;28;20440;-67
2023/05/22 09:39:00;;;;;;;17.40;14.17;;;23.90;99.90;;;;;;5021386;28;21131;-67
2023/05/22 09:41:29;;;;;;;16.10;14.60;;;24.00;99.90;;;;;;5025515;28;20410;-67
2023/05/22 09:43:54;;;;;;;16.13;14.27;;;24.00;99.90;;;;;;5020537;28;20977;-67
2023/05/22 09:46:20;;;;;;;14.20;12.73;;;23.90;99.90;;;;;;5021461;28;20484;-66
2023/05/22 09:48:53;;;;;;;15.17;13.77;;;24.00;99.90;;;;;;5019598;28;20283;-67
2023/05/22 09:51:28;;;;;;;14.57;13.17;;;24.20;99.90;;;;;;5020182;28;20512;-66
2023/05/22 09:54:02;;;;;;;15.67;14.07;;;24.40;99.90;;;;;;5021923;28;20457;-67
2023/05/22 09:56:29;;;;;;;15.67;14.07;;;24.60;99.90;;;;;;5018214;28;20470;-67
2023/05/22 09:58:55;;;;;;;13.90;12.43;;;24.60;99.90;;;;;;5014139;28;20601;-68
2023/05/22 10:01:22;;;;;;;15.43;13.63;;;24.70;99.90;;;;;;5020764;28;20551;-66
2023/05/22 10:03:53;;;;;;;15.67;14.27;;;24.70;99.90;;;;;;5019019;28;20196;-66
2023/05/22 10:06:20;;;;;;;15.23;13.63;;;24.80;99.90;;;;;;5017872;28;20436;-66
2023/05/22 10:09:00;;;;;;;13.63;12.33;;;24.80;99.90;;;;;;5021909;28;20455;-66
2023/05/22 10:11:30;;;;;;;15.50;13.77;;;24.80;99.90;;;;;;5017388;28;20470;-66
2023/05/22 10:14:00;;;;;;;14.97;13.47;;;24.70;99.90;;;;;;5020966;28;20435;-67
2023/05/22 10:16:26;;;;;;;14.47;13.17;;;24.70;99.90;;;;;;5016283;28;21287;-67
2023/05/22 10:18:54;;;;;;;14.03;12.63;;;24.70;99.90;;;;;;5021712;28;20435;-67
2023/05/22 10:21:20;;;;;;;15.07;13.67;;;24.80;99.90;;;;;;5018151;28;20439;-67
2023/05/22 10:23:48;;;;;;;15.00;13.40;;;24.90;99.90;;;;;;5019055;28;20423;-67
2023/05/22 10:26:16;;;;;;;13.03;11.83;;;24.90;99.90;;;;;;5025460;28;20430;-67
2023/05/22 10:28:48;;;;;;;14.80;13.30;;;25.00;99.90;;;;;;5016573;28;20599;-66
2023/05/22 10:31:28;;;;;;;15.50;13.87;;;25.10;99.90;;;;;;5018638;28;20486;-66
2023/05/22 10:34:00;;;;;;;14.93;13.30;;;25.30;99.90;;;;;;5022950;28;20449;-67
2023/05/22 10:36:44;;;;;;;14.97;13.57;;;25.20;99.90;;;;;;5018479;28;20431;-67
2023/05/22 10:39:27;;;;;;;15.00;13.50;;;25.30;99.90;;;;;;5022522;28;20493;-67
2023/05/22 10:41:53;;;;;;;16.30;14.80;;;25.50;99.90;;;;;;5021453;28;20420;-66
2023/05/22 10:44:18;;;;;;;14.10;12.53;;;25.60;99.90;;;;;;5018107;28;20426;-67
2023/05/22 10:46:49;;;;;;;15.47;14.00;;;25.70;99.90;;;;;;5020742;28;20277;-67
2023/05/22 10:49:22;;;;;;;15.47;13.97;;;25.70;99.90;;;;;;5016527;28;20572;-67
2023/05/22 10:51:48;;;;;;;15.90;14.40;;;25.90;99.90;;;;;;5017909;28;20466;-67
2023/05/22 10:54:14;;;;;;;16.10;14.70;;;25.80;99.90;;;;;;5023434;28;20411;-67
2023/05/22 10:56:40;;;;;;;14.97;13.67;;;25.80;99.90;;;;;;5019180;28;20931;-67
2023/05/22 10:59:06;;;;;;;16.20;14.70;;;25.90;99.90;;;;;;5021853;28;20196;-69
2023/05/22 11:01:36;;;;;;;16.47;14.97;;;26.00;99.90;;;;;;5014556;28;20447;-66
2023/05/22 11:04:07;;;;;;;16.10;14.60;;;26.20;99.90;;;;;;5015069;28;20462;-66
2023/05/22 11:07:03;;;;;;;14.70;13.17;;;26.30;99.90;;;;;;5019165;28;20450;-67
2023/05/22 11:09:47;;;;;;;15.53;14.13;;;26.50;99.90;;;;;;5021358;28;20502;-67
2023/05/22 11:12:16;;;;;;;15.60;14.10;;;26.60;99.90;;;;;;5020655;28;20612;-66
2023/05/22 11:14:55;;;;;;;14.60;13.27;;;26.70;99.90;;;;;;5019565;28;20416;-67
2023/05/22 11:17:26;;;;;;;15.30;13.70;;;26.80;99.90;;;;;;5019109;28;20439;-67
2023/05/22 11:20:16;;;;;;;15.80;13.53;;;26.90;99.90;;;;;;5013647;28;20478;-66
2023/05/22 11:22:43;;;;;;;16.23;13.20;;;27.00;99.90;;;;;;5015212;28;20439;-67
2023/05/22 11:25:13;;;;;;;14.83;13.40;;;27.20;99.90;;;;;;5015448;28;20638;-66
2023/05/22 11:27:40;;;;;;;14.57;13.27;;;27.40;99.90;;;;;;5016380;28;20438;-66
2023/05/22 11:30:07;;;;;;;15.70;14.20;;;27.70;99.90;;;;;;5012582;28;20453;-66
2023/05/22 11:32:43;;;;;;;13.43;12.23;;;27.90;99.90;;;;;;5025429;28;20772;-67
2023/05/22 11:35:21;;;;;;;17.40;16.00;;;28.10;99.90;;;;;;5019024;28;20411;-66
2023/05/22 11:37:48;;;;;;;15.27;13.77;;;28.30;99.90;;;;;;5017817;28;20484;-66
2023/05/22 11:40:24;;;;;;;14.60;13.10;;;28.50;99.90;;;;;;5018665;28;20415;-66
2023/05/22 11:42:50;;;;;;;13.87;12.50;;;28.80;99.90;;;;;;5017720;28;20424;-66
2023/05/22 11:45:16;;;;;;;13.57;12.33;;;29.10;99.90;;;;;;5016312;28;20466;-66
2023/05/22 11:47:43;;;;;;;14.40;12.93;;;29.30;99.90;;;;;;5012488;28;20431;-66
2023/05/22 11:50:09;;;;;;;14.23;12.70;;;29.30;99.90;;;;;;5015055;28;20440;-66
2023/05/22 11:52:37;;;;;;;13.67;12.47;;;29.30;99.90;;;;;;5019101;28;20438;-66
2023/05/22 11:55:09;;;;;;;13.13;11.83;;;29.40;99.90;;;;;;5020178;28;20598;-66
2023/05/22 11:57:35;;;;;;;13.97;12.57;;;29.80;99.90;;;;;;5018345;28;20779;-66
2023/05/22 12:00:06;;;;;;;15.23;12.90;;;30.10;99.90;;;;;;5016361;28;20564;-66
2023/05/22 12:02:32;;;;;;;15.17;13.70;;;31.00;99.40;;;;;;5015274;28;20555;-66
2023/05/22 12:04:58;;;;;;;14.80;13.43;;;32.90;97.70;;;;;;5017807;28;20614;-67
2023/05/22 12:07:26;;;;;;;14.17;12.97;;;34.90;94.40;;;;;;5017753;28;20188;-67
2023/05/22 12:09:54;;;;;;;15.80;14.30;;;36.70;89.00;;;;;;5020021;28;20437;-66
2023/05/22 12:12:20;;;;;;;12.93;11.73;;;38.00;76.10;;;;;;5016263;28;20430;-66
2023/05/22 12:14:47;;;;;;;12.27;11.27;;;39.10;66.00;;;;;;5015835;28;20919;-66
2023/05/22 12:17:13;;;;;;;14.50;13.10;;;40.10;60.80;;;;;;5015970;28;20177;-67
2023/05/22 12:19:40;;;;;;;13.93;12.83;;;41.00;57.20;;;;;;5013017;28;20960;-67
2023/05/22 12:22:06;;;;;;;11.33;10.33;;;41.80;54.80;;;;;;5018488;28;20501;-66
2023/05/22 12:24:39;;;;;;;11.97;11.00;;;42.50;50.30;;;;;;5013988;28;20522;-66
2023/05/22 12:27:08;;;;;;;11.40;10.17;;;42.20;47.50;;;;;;5020419;28;20182;-67
2023/05/22 12:29:33;;;;;;;12.40;11.30;;;42.30;47.10;;;;;;5016446;28;20465;-66
2023/05/22 12:32:06;;;;;;;11.63;10.53;;;42.40;45.70;;;;;;5017317;28;21058;-67